Terminal Aerodrome Forecast
Issued by NWS

Home | Current Version | Previous Version | Text Only | Print | Product List | Glossary On
Versions: 1 2 3 4 5 6 7 8 9 10 11 12 13 14 15 16 17 18 19 20 21
000
FTUS41 KGYX 212325
TAFPSM
TAF
KPSM 212325Z 2200/2224 26010KT P6SM OVC050
     FM220005 30008KT P6SM BKN050 OVC120
     FM220500 36007KT P6SM SCT250 PROB30 2218/2223 2SM -SN OVC025=

USA.gov is the U.S. government's official web portal to all federal, state and local government web resources and services.